sensor_id;sensor_type;location;lat;lon;timestamp;pressure;altitude;pressure_sealevel;temperature;humidity
9129;BME280;4599;50.906;6.786;2023-02-28T00:03:04;15584.69;;;-142.83;60.01
9129;BME280;4599;50.906;6.786;2023-02-28T00:07:06;15576.50;;;-142.83;59.91
9129;BME280;4599;50.906;6.786;2023-02-28T00:11:10;15560.16;;;-142.83;59.87
9129;BME280;4599;50.906;6.786;2023-02-28T00:15:11;15558.09;;;-142.83;60.75
9129;BME280;4599;50.906;6.786;2023-02-28T00:19:14;15572.41;;;-142.83;60.76
9129;BME280;4599;50.906;6.786;2023-02-28T00:23:16;15558.09;;;-142.83;59.94
9129;BME280;4599;50.906;6.786;2023-02-28T00:27:17;15586.72;;;-142.83;61.01
9129;BME280;4599;50.906;6.786;2023-02-28T00:31:18;15568.31;;;-142.83;60.20
9129;BME280;4599;50.906;6.786;2023-02-28T00:35:21;15576.50;;;-142.83;61.51
9129;BME280;4599;50.906;6.786;2023-02-28T00:39:22;15551.97;;;-142.83;61.24
9129;BME280;4599;50.906;6.786;2023-02-28T00:43:24;15541.75;;;-142.83;61.58
9129;BME280;4599;50.906;6.786;2023-02-28T00:47:25;15562.19;;;-142.83;61.33
9129;BME280;4599;50.906;6.786;2023-02-28T00:51:28;15560.16;;;-142.83;61.01
9129;BME280;4599;50.906;6.786;2023-02-28T00:55:30;15570.38;;;-142.83;60.96
9129;BME280;4599;50.906;6.786;2023-02-28T00:59:32;15568.31;;;-142.83;61.84
9129;BME280;4599;50.906;6.786;2023-02-28T01:03:33;15554.00;;;-142.83;61.15
9129;BME280;4599;50.906;6.786;2023-02-28T01:07:36;15568.31;;;-142.83;61.84
9129;BME280;4599;50.906;6.786;2023-02-28T01:11:37;15574.47;;;-142.83;62.17
9129;BME280;4599;50.906;6.786;2023-02-28T01:15:41;15545.84;;;-142.83;62.30
9129;BME280;4599;50.906;6.786;2023-02-28T01:19:44;15525.41;;;-142.83;62.35
9129;BME280;4599;50.906;6.786;2023-02-28T01:23:48;15539.69;;;-142.83;61.89
9129;BME280;4599;50.906;6.786;2023-02-28T01:27:49;15560.16;;;-142.83;62.61
9129;BME280;4599;50.906;6.786;2023-02-28T01:31:51;15545.84;;;-142.83;62.81
9129;BME280;4599;50.906;6.786;2023-02-28T01:35:57;15509.03;;;-142.83;62.81
9129;BME280;4599;50.906;6.786;2023-02-28T01:40:00;15511.09;;;-142.83;62.90
9129;BME280;4599;50.906;6.786;2023-02-28T01:44:04;15504.94;;;-142.83;62.63
9129;BME280;4599;50.906;6.786;2023-02-28T01:48:08;15523.34;;;-142.83;63.28
9129;BME280;4599;50.906;6.786;2023-02-28T01:52:11;15525.41;;;-142.83;63.13
9129;BME280;4599;50.906;6.786;2023-02-28T01:56:18;15535.63;;;-142.83;63.07
9129;BME280;4599;50.906;6.786;2023-02-28T02:00:24;15523.34;;;-142.83;62.93
9129;BME280;4599;50.906;6.786;2023-02-28T02:04:30;15507.00;;;-142.83;63.26
9129;BME280;4599;50.906;6.786;2023-02-28T02:08:33;15537.66;;;-142.83;63.75
9129;BME280;4599;50.906;6.786;2023-02-28T02:12:48;15551.97;;;-142.83;63.58
9129;BME280;4599;50.906;6.786;2023-02-28T02:17:04;15513.13;;;-142.83;63.72
9129;BME280;4599;50.906;6.786;2023-02-28T02:21:43;15523.34;;;-142.83;64.05
9129;BME280;4599;50.906;6.786;2023-02-28T02:25:53;15517.22;;;-142.83;64.32
9129;BME280;4599;50.906;6.786;2023-02-28T02:30:35;15521.31;;;-142.83;63.88
9129;BME280;4599;50.906;6.786;2023-02-28T02:34:54;15527.44;;;-142.83;63.90
9129;BME280;4599;50.906;6.786;2023-02-28T02:39:01;15543.78;;;-142.83;63.82
9129;BME280;4599;50.906;6.786;2023-02-28T02:43:09;15549.94;;;-142.83;63.94
9129;BME280;4599;50.906;6.786;2023-02-28T02:47:15;15533.56;;;-142.83;64.37
9129;BME280;4599;50.906;6.786;2023-02-28T02:51:21;15517.22;;;-142.83;65.63
9129;BME280;4599;50.906;6.786;2023-02-28T02:55:24;15484.50;;;-142.83;64.09
9129;BME280;4599;50.906;6.786;2023-02-28T02:59:28;15494.72;;;-142.83;64.13
9129;BME280;4599;50.906;6.786;2023-02-28T03:03:30;15531.53;;;-142.83;64.23
9129;BME280;4599;50.906;6.786;2023-02-28T03:07:35;15527.44;;;-142.83;64.66
9129;BME280;4599;50.906;6.786;2023-02-28T03:11:41;15521.31;;;-142.83;64.17
9129;BME280;4599;50.906;6.786;2023-02-28T03:15:51;15517.22;;;-142.83;64.09
9129;BME280;4599;50.906;6.786;2023-02-28T03:20:04;15507.00;;;-142.83;64.70
9129;BME280;4599;50.906;6.786;2023-02-28T03:24:12;15525.41;;;-142.83;64.30
9129;BME280;4599;50.906;6.786;2023-02-28T03:28:25;15531.53;;;-142.83;64.32
9129;BME280;4599;50.906;6.786;2023-02-28T03:32:33;15521.31;;;-142.83;63.98
9129;BME280;4599;50.906;6.786;2023-02-28T03:36:38;15527.44;;;-142.83;63.62
9129;BME280;4599;50.906;6.786;2023-02-28T03:40:45;15560.16;;;-142.83;62.42
9129;BME280;4599;50.906;6.786;2023-02-28T03:44:51;15554.00;;;-142.83;62.87
9129;BME280;4599;50.906;6.786;2023-02-28T03:48:57;15537.66;;;-142.83;61.67
9129;BME280;4599;50.906;6.786;2023-02-28T03:53:04;15543.78;;;-142.83;61.67
9129;BME280;4599;50.906;6.786;2023-02-28T03:57:13;15590.81;;;-142.83;61.81
9129;BME280;4599;50.906;6.786;2023-02-28T04:01:20;15535.63;;;-142.83;62.84
9129;BME280;4599;50.906;6.786;2023-02-28T04:05:23;15535.63;;;-142.83;62.85
9129;BME280;4599;50.906;6.786;2023-02-28T04:09:25;15533.56;;;-142.83;62.66
9129;BME280;4599;50.906;6.786;2023-02-28T04:13:27;15519.25;;;-142.83;62.08
9129;BME280;4599;50.906;6.786;2023-02-28T04:17:29;15582.63;;;-142.83;62.20
9129;BME280;4599;50.906;6.786;2023-02-28T04:21:31;15541.75;;;-142.83;62.56
9129;BME280;4599;50.906;6.786;2023-02-28T04:25:33;15539.69;;;-142.83;63.16
9129;BME280;4599;50.906;6.786;2023-02-28T04:29:38;15529.47;;;-142.83;62.67
9129;BME280;4599;50.906;6.786;2023-02-28T04:33:40;15556.06;;;-142.83;63.18
9129;BME280;4599;50.906;6.786;2023-02-28T04:37:41;15545.84;;;-142.83;63.73
9129;BME280;4599;50.906;6.786;2023-02-28T04:41:45;15515.16;;;-142.83;64.60
9129;BME280;4599;50.906;6.786;2023-02-28T04:45:48;15513.13;;;-142.83;64.99
9129;BME280;4599;50.906;6.786;2023-02-28T04:49:49;15490.63;;;-142.83;65.00
9129;BME280;4599;50.906;6.786;2023-02-28T04:53:50;15519.25;;;-142.83;65.62
9129;BME280;4599;50.906;6.786;2023-02-28T04:57:53;15531.53;;;-142.83;66.08
9129;BME280;4599;50.906;6.786;2023-02-28T05:01:55;15488.59;;;-142.83;66.44
9129;BME280;4599;50.906;6.786;2023-02-28T05:05:57;15502.91;;;-142.83;66.05
9129;BME280;4599;50.906;6.786;2023-02-28T05:09:58;15539.69;;;-142.83;66.47
9129;BME280;4599;50.906;6.786;2023-02-28T05:14:00;15496.78;;;-142.83;66.34
9129;BME280;4599;50.906;6.786;2023-02-28T05:18:02;15525.41;;;-142.83;66.87
9129;BME280;4599;50.906;6.786;2023-02-28T05:22:04;15502.91;;;-142.83;66.89
9129;BME280;4599;50.906;6.786;2023-02-28T05:26:05;15500.84;;;-142.83;67.45
9129;BME280;4599;50.906;6.786;2023-02-28T05:30:08;15500.84;;;-142.83;67.33
9129;BME280;4599;50.906;6.786;2023-02-28T05:34:11;15519.25;;;-142.83;66.39
9129;BME280;4599;50.906;6.786;2023-02-28T05:38:12;15519.25;;;-142.83;65.57
9129;BME280;4599;50.906;6.786;2023-02-28T05:42:14;15517.22;;;-142.83;65.11
9129;BME280;4599;50.906;6.786;2023-02-28T05:46:15;15547.88;;;-142.83;64.96
9129;BME280;4599;50.906;6.786;2023-02-28T05:50:18;15504.94;;;-142.83;65.58
9129;BME280;4599;50.906;6.786;2023-02-28T05:54:19;15502.91;;;-142.83;65.01
9129;BME280;4599;50.906;6.786;2023-02-28T05:58:21;15519.25;;;-142.83;63.95
9129;BME280;4599;50.906;6.786;2023-02-28T06:02:23;15531.53;;;-142.83;63.93
9129;BME280;4599;50.906;6.786;2023-02-28T06:06:25;15541.75;;;-142.83;63.61
9129;BME280;4599;50.906;6.786;2023-02-28T06:10:27;15539.69;;;-142.83;63.80
9129;BME280;4599;50.906;6.786;2023-02-28T06:14:29;15543.78;;;-142.83;62.87
9129;BME280;4599;50.906;6.786;2023-02-28T06:18:30;15507.00;;;-142.83;63.06
9129;BME280;4599;50.906;6.786;2023-02-28T06:22:33;15531.53;;;-142.83;63.07
9129;BME280;4599;50.906;6.786;2023-02-28T06:26:34;15576.50;;;-142.83;62.19
9129;BME280;4599;50.906;6.786;2023-02-28T06:30:36;15549.94;;;-142.83;62.85
9129;BME280;4599;50.906;6.786;2023-02-28T06:34:39;15521.31;;;-142.83;62.59
9129;BME280;4599;50.906;6.786;2023-02-28T06:38:42;15537.66;;;-142.83;61.70
9129;BME280;4599;50.906;6.786;2023-02-28T06:42:44;15556.06;;;-142.83;61.34
9129;BME280;4599;50.906;6.786;2023-02-28T06:46:46;15551.97;;;-142.83;60.53
9129;BME280;4599;50.906;6.786;2023-02-28T06:50:48;15545.84;;;-142.83;60.66
9129;BME280;4599;50.906;6.786;2023-02-28T06:54:50;15570.38;;;-142.83;60.13
9129;BME280;4599;50.906;6.786;2023-02-28T06:58:52;15572.41;;;-142.83;59.34
9129;BME280;4599;50.906;6.786;2023-02-28T07:02:53;15580.59;;;-142.83;58.46
9129;BME280;4599;50.906;6.786;2023-02-28T07:06:55;15572.41;;;-142.83;58.66
9129;BME280;4599;50.906;6.786;2023-02-28T07:10:58;15574.47;;;-142.83;57.59
9129;BME280;4599;50.906;6.786;2023-02-28T07:14:59;15568.31;;;-142.83;57.62
9129;BME280;4599;50.906;6.786;2023-02-28T07:19:03;15580.59;;;-142.83;57.00
9129;BME280;4599;50.906;6.786;2023-02-28T07:23:05;15613.31;;;-142.83;57.54
9129;BME280;4599;50.906;6.786;2023-02-28T07:27:08;15568.31;;;-142.83;56.46
9129;BME280;4599;50.906;6.786;2023-02-28T07:31:11;15592.84;;;-142.83;55.62
9129;BME280;4599;50.906;6.786;2023-02-28T07:35:12;15601.03;;;-142.83;55.41
9129;BME280;4599;50.906;6.786;2023-02-28T07:39:14;15601.03;;;-142.83;54.73
9129;BME280;4599;50.906;6.786;2023-02-28T07:43:17;15619.44;;;-142.83;53.93
9129;BME280;4599;50.906;6.786;2023-02-28T07:47:18;15699.19;;;-142.83;53.12
9129;BME280;4599;50.906;6.786;2023-02-28T07:51:22;15838.22;;;-142.83;45.36
9129;BME280;4599;50.906;6.786;2023-02-28T07:55:23;15909.78;;;-142.83;42.70
9129;BME280;4599;50.906;6.786;2023-02-28T07:59:26;16003.81;;;-142.83;40.17
9129;BME280;4599;50.906;6.786;2023-02-28T08:03:28;16032.44;;;-142.83;38.15
9129;BME280;4599;50.906;6.786;2023-02-28T08:07:29;15846.38;;;-142.83;40.22
9129;BME280;4599;50.906;6.786;2023-02-28T08:11:30;15799.34;;;-142.83;41.92
9129;BME280;4599;50.906;6.786;2023-02-28T08:15:34;15793.22;;;-142.83;43.11
9129;BME280;4599;50.906;6.786;2023-02-28T08:19:35;15778.91;;;-142.83;43.17
9129;BME280;4599;50.906;6.786;2023-02-28T08:23:37;15785.03;;;-142.83;43.46
9129;BME280;4599;50.906;6.786;2023-02-28T08:27:38;15785.03;;;-142.83;42.81
9129;BME280;4599;50.906;6.786;2023-02-28T08:31:41;15789.13;;;-142.83;43.24
9129;BME280;4599;50.906;6.786;2023-02-28T08:35:43;15768.69;;;-142.83;43.31
9129;BME280;4599;50.906;6.786;2023-02-28T08:39:44;15780.97;;;-142.83;42.98
9129;BME280;4599;50.906;6.786;2023-02-28T08:43:46;15801.41;;;-142.83;42.68
9129;BME280;4599;50.906;6.786;2023-02-28T08:47:49;15793.22;;;-142.83;41.85
9129;BME280;4599;50.906;6.786;2023-02-28T08:51:50;15791.19;;;-142.83;42.12
9129;BME280;4599;50.906;6.786;2023-02-28T08:55:59;15801.41;;;-142.83;41.00
9129;BME280;4599;50.906;6.786;2023-02-28T09:00:02;15813.66;;;-142.83;41.41
9129;BME280;4599;50.906;6.786;2023-02-28T09:04:05;15838.22;;;-142.83;39.71
9129;BME280;4599;50.906;6.786;2023-02-28T09:08:06;15834.13;;;-142.83;39.91
9129;BME280;4599;50.906;6.786;2023-02-28T09:12:07;15834.13;;;-142.83;39.76
9129;BME280;4599;50.906;6.786;2023-02-28T09:16:11;15850.47;;;-142.83;40.04
9129;BME280;4599;50.906;6.786;2023-02-28T09:20:15;15834.13;;;-142.83;39.43
9129;BME280;4599;50.906;6.786;2023-02-28T09:24:16;15854.56;;;-142.83;39.02
9129;BME280;4599;50.906;6.786;2023-02-28T09:28:18;15842.28;;;-142.83;38.94
9129;BME280;4599;50.906;6.786;2023-02-28T09:32:20;15903.63;;;-142.83;38.83
9129;BME280;4599;50.906;6.786;2023-02-28T09:36:24;15868.88;;;-142.83;38.62
9129;BME280;4599;50.906;6.786;2023-02-28T09:40:48;15887.28;;;-142.83;38.02
9129;BME280;4599;50.906;6.786;2023-02-28T09:44:50;15834.13;;;-142.83;38.75
9129;BME280;4599;50.906;6.786;2023-02-28T09:48:53;15909.78;;;-142.83;37.79
9129;BME280;4599;50.906;6.786;2023-02-28T09:52:57;15909.78;;;-142.83;38.28
9129;BME280;4599;50.906;6.786;2023-02-28T09:57:02;15893.41;;;-142.83;38.46
9129;BME280;4599;50.906;6.786;2023-02-28T10:01:10;15879.09;;;-142.83;38.04
9129;BME280;4599;50.906;6.786;2023-02-28T10:05:15;15891.38;;;-142.83;37.69
9129;BME280;4599;50.906;6.786;2023-02-28T10:09:22;15917.94;;;-142.83;37.15
9129;BME280;4599;50.906;6.786;2023-02-28T10:13:26;15891.38;;;-142.83;37.73
9129;BME280;4599;50.906;6.786;2023-02-28T10:17:38;15946.56;;;-142.83;36.44
9129;BME280;4599;50.906;6.786;2023-02-28T10:22:02;15991.56;;;-142.83;36.04
9129;BME280;4599;50.906;6.786;2023-02-28T10:26:11;16112.19;;;-142.83;33.85
9129;BME280;4599;50.906;6.786;2023-02-28T10:30:13;16214.44;;;-142.83;32.71
9129;BME280;4599;50.906;6.786;2023-02-28T10:34:15;16169.44;;;-142.83;32.73
9129;BME280;4599;50.906;6.786;2023-02-28T10:38:18;16298.28;;;-142.83;32.05
9129;BME280;4599;50.906;6.786;2023-02-28T10:42:24;16408.69;;;-142.83;30.47
9129;BME280;4599;50.906;6.786;2023-02-28T10:46:33;16380.06;;;-142.83;30.60
9129;BME280;4599;50.906;6.786;2023-02-28T10:50:42;16408.69;;;-142.83;30.59
9129;BME280;4599;50.906;6.786;2023-02-28T10:54:45;16412.78;;;-142.83;30.74
9129;BME280;4599;50.906;6.786;2023-02-28T10:58:52;16555.94;;;-142.83;30.60
9129;BME280;4599;50.906;6.786;2023-02-28T11:02:54;16586.59;;;-142.83;29.71
9129;BME280;4599;50.906;6.786;2023-02-28T11:06:57;16643.88;;;-142.83;28.59
9129;BME280;4599;50.906;6.786;2023-02-28T11:11:03;16596.84;;;-142.83;29.66
9129;BME280;4599;50.906;6.786;2023-02-28T11:15:21;16658.19;;;-142.83;29.15
9129;BME280;4599;50.906;6.786;2023-02-28T11:19:26;16688.88;;;-142.83;29.00
9129;BME280;4599;50.906;6.786;2023-02-28T11:23:31;16762.47;;;-142.83;28.41
9129;BME280;4599;50.906;6.786;2023-02-28T11:27:43;16656.13;;;-142.83;28.52
9129;BME280;4599;50.906;6.786;2023-02-28T11:36:17;16742.03;;;-142.83;29.38
9129;BME280;4599;50.906;6.786;2023-02-28T11:40:33;16703.19;;;-142.83;29.69
9129;BME280;4599;50.906;6.786;2023-02-28T11:44:47;16719.53;;;-142.83;28.96
9129;BME280;4599;50.906;6.786;2023-02-28T11:48:57;16758.41;;;-142.83;28.97
9129;BME280;4599;50.906;6.786;2023-02-28T11:53:03;16594.78;;;-142.83;28.24
9129;BME280;4599;50.906;6.786;2023-02-28T11:57:16;16400.53;;;-142.83;30.44
9129;BME280;4599;50.906;6.786;2023-02-28T12:01:31;16623.41;;;-142.83;30.92
9129;BME280;4599;50.906;6.786;2023-02-28T12:05:42;16652.06;;;-142.83;30.82
9129;BME280;4599;50.906;6.786;2023-02-28T12:09:55;16684.78;;;-142.83;30.77
9129;BME280;4599;50.906;6.786;2023-02-28T12:18:33;16742.03;;;-142.83;29.37
9129;BME280;4599;50.906;6.786;2023-02-28T12:22:43;16748.16;;;-142.83;29.87
9129;BME280;4599;50.906;6.786;2023-02-28T12:26:53;16733.84;;;-142.83;28.80
9129;BME280;4599;50.906;6.786;2023-02-28T12:30:59;16697.03;;;-142.83;29.67
9129;BME280;4599;50.906;6.786;2023-02-28T12:35:06;16615.25;;;-142.83;30.65
9129;BME280;4599;50.906;6.786;2023-02-28T12:39:15;16662.28;;;-142.83;30.47
9129;BME280;4599;50.906;6.786;2023-02-28T12:43:21;16625.47;;;-142.83;30.60
9129;BME280;4599;50.906;6.786;2023-02-28T12:47:23;16574.34;;;-142.83;30.92
9129;BME280;4599;50.906;6.786;2023-02-28T12:51:25;16521.16;;;-142.83;31.64
9129;BME280;4599;50.906;6.786;2023-02-28T12:55:35;16582.53;;;-142.83;30.48
9129;BME280;4599;50.906;6.786;2023-02-28T12:59:45;16566.16;;;-142.83;31.07
9129;BME280;4599;50.906;6.786;2023-02-28T13:04:04;16562.06;;;-142.83;30.10
9129;BME280;4599;50.906;6.786;2023-02-28T13:08:23;16576.38;;;-142.83;30.86
9129;BME280;4599;50.906;6.786;2023-02-28T13:12:29;16508.91;;;-142.83;31.15
9129;BME280;4599;50.906;6.786;2023-02-28T13:16:53;16541.63;;;-142.83;31.88
9129;BME280;4599;50.906;6.786;2023-02-28T13:20:56;16553.88;;;-142.83;30.97
9129;BME280;4599;50.906;6.786;2023-02-28T13:24:57;16533.44;;;-142.83;31.29
9129;BME280;4599;50.906;6.786;2023-02-28T13:29:00;16517.06;;;-142.83;31.63
9129;BME280;4599;50.906;6.786;2023-02-28T13:33:24;16533.44;;;-142.83;31.75
9129;BME280;4599;50.906;6.786;2023-02-28T13:37:35;16500.72;;;-142.83;31.23
9129;BME280;4599;50.906;6.786;2023-02-28T13:41:45;16496.63;;;-142.83;32.06
9129;BME280;4599;50.906;6.786;2023-02-28T13:46:10;16453.69;;;-142.83;32.25
9129;BME280;4599;50.906;6.786;2023-02-28T13:50:24;16435.28;;;-142.83;33.13
9129;BME280;4599;50.906;6.786;2023-02-28T13:54:38;16388.25;;;-142.83;33.31
9129;BME280;4599;50.906;6.786;2023-02-28T13:58:51;16443.47;;;-142.83;33.08
9129;BME280;4599;50.906;6.786;2023-02-28T14:03:16;16414.84;;;-142.83;34.04
9129;BME280;4599;50.906;6.786;2023-02-28T14:07:28;16418.91;;;-142.83;33.45
9129;BME280;4599;50.906;6.786;2023-02-28T14:11:38;16392.34;;;-142.83;33.29
9129;BME280;4599;50.906;6.786;2023-02-28T14:15:55;16406.66;;;-142.83;32.90
9129;BME280;4599;50.906;6.786;2023-02-28T14:19:58;16361.66;;;-142.83;33.25
9129;BME280;4599;50.906;6.786;2023-02-28T14:24:17;16363.72;;;-142.83;33.96
9129;BME280;4599;50.906;6.786;2023-02-28T14:28:28;16353.47;;;-142.83;34.41
9129;BME280;4599;50.906;6.786;2023-02-28T14:32:44;16369.84;;;-142.83;33.87
9129;BME280;4599;50.906;6.786;2023-02-28T14:36:49;16378.03;;;-142.83;33.74
9129;BME280;4599;50.906;6.786;2023-02-28T14:40:57;16390.28;;;-142.83;33.74
9129;BME280;4599;50.906;6.786;2023-02-28T14:44:59;16341.22;;;-142.83;34.28
9129;BME280;4599;50.906;6.786;2023-02-28T14:49:01;16333.03;;;-142.83;34.07
9129;BME280;4599;50.906;6.786;2023-02-28T14:53:03;16353.47;;;-142.83;34.78
9129;BME280;4599;50.906;6.786;2023-02-28T14:57:21;16353.47;;;-142.83;34.23
9129;BME280;4599;50.906;6.786;2023-02-28T15:01:24;16353.47;;;-142.83;33.94
9129;BME280;4599;50.906;6.786;2023-02-28T15:05:28;16320.75;;;-142.83;34.79
9129;BME280;4599;50.906;6.786;2023-02-28T15:09:30;16326.91;;;-142.83;33.91
9129;BME280;4599;50.906;6.786;2023-02-28T15:13:36;16333.03;;;-142.83;34.38
9129;BME280;4599;50.906;6.786;2023-02-28T15:17:38;16304.41;;;-142.83;35.09
9129;BME280;4599;50.906;6.786;2023-02-28T15:21:42;16310.53;;;-142.83;34.77
9129;BME280;4599;50.906;6.786;2023-02-28T15:25:45;16292.13;;;-142.83;35.33
9129;BME280;4599;50.906;6.786;2023-02-28T15:29:51;16306.44;;;-142.83;35.09
9129;BME280;4599;50.906;6.786;2023-02-28T15:33:53;16300.31;;;-142.83;35.14
9129;BME280;4599;50.906;6.786;2023-02-28T15:37:56;16257.38;;;-142.83;35.74
9129;BME280;4599;50.906;6.786;2023-02-28T15:42:10;16288.06;;;-142.83;35.65
9129;BME280;4599;50.906;6.786;2023-02-28T15:46:14;16328.94;;;-142.83;35.79
9129;BME280;4599;50.906;6.786;2023-02-28T15:50:16;16292.13;;;-142.83;35.51
9129;BME280;4599;50.906;6.786;2023-02-28T15:54:20;16310.53;;;-142.83;35.09
9129;BME280;4599;50.906;6.786;2023-02-28T15:58:22;16300.31;;;-142.83;35.12
9129;BME280;4599;50.906;6.786;2023-02-28T16:02:32;16249.19;;;-142.83;35.66
9129;BME280;4599;50.906;6.786;2023-02-28T16:06:39;16283.97;;;-142.83;36.18
9129;BME280;4599;50.906;6.786;2023-02-28T16:10:40;16255.34;;;-142.83;36.32
9129;BME280;4599;50.906;6.786;2023-02-28T16:14:42;16290.09;;;-142.83;35.96
9129;BME280;4599;50.906;6.786;2023-02-28T16:18:46;16279.88;;;-142.83;36.04
9129;BME280;4599;50.906;6.786;2023-02-28T16:22:47;16267.59;;;-142.83;36.49
9129;BME280;4599;50.906;6.786;2023-02-28T16:26:50;16255.34;;;-142.83;36.50
9129;BME280;4599;50.906;6.786;2023-02-28T16:30:53;16249.19;;;-142.83;37.16
9129;BME280;4599;50.906;6.786;2023-02-28T16:34:56;16253.28;;;-142.83;37.14
9129;BME280;4599;50.906;6.786;2023-02-28T16:38:58;16224.66;;;-142.83;37.95
9129;BME280;4599;50.906;6.786;2023-02-28T16:43:00;16243.06;;;-142.83;37.91
9129;BME280;4599;50.906;6.786;2023-02-28T16:47:05;16212.38;;;-142.83;37.89
9129;BME280;4599;50.906;6.786;2023-02-28T16:51:10;16194.00;;;-142.83;37.83
9129;BME280;4599;50.906;6.786;2023-02-28T16:55:12;16230.78;;;-142.83;38.58
9129;BME280;4599;50.906;6.786;2023-02-28T16:59:22;16181.72;;;-142.83;39.81
9129;BME280;4599;50.906;6.786;2023-02-28T17:03:25;16167.41;;;-142.83;40.05
9129;BME280;4599;50.906;6.786;2023-02-28T17:07:35;16194.00;;;-142.83;39.69
9129;BME280;4599;50.906;6.786;2023-02-28T17:11:37;16157.19;;;-142.83;40.60
9129;BME280;4599;50.906;6.786;2023-02-28T17:15:38;16136.72;;;-142.83;41.54
9129;BME280;4599;50.906;6.786;2023-02-28T17:19:40;16136.72;;;-142.83;41.66
9129;BME280;4599;50.906;6.786;2023-02-28T17:23:43;16140.81;;;-142.83;40.88
9129;BME280;4599;50.906;6.786;2023-02-28T17:27:45;16118.34;;;-142.83;41.49
9129;BME280;4599;50.906;6.786;2023-02-28T17:31:47;16165.34;;;-142.83;41.44
9129;BME280;4599;50.906;6.786;2023-02-28T17:35:48;16108.09;;;-142.83;42.43
9129;BME280;4599;50.906;6.786;2023-02-28T17:39:51;16114.25;;;-142.83;42.32
9129;BME280;4599;50.906;6.786;2023-02-28T17:43:53;16079.47;;;-142.83;42.08
9129;BME280;4599;50.906;6.786;2023-02-28T17:47:54;16128.56;;;-142.83;42.49
9129;BME280;4599;50.906;6.786;2023-02-28T17:51:56;16149.00;;;-142.83;42.28
9129;BME280;4599;50.906;6.786;2023-02-28T17:55:58;16116.28;;;-142.83;42.85
9129;BME280;4599;50.906;6.786;2023-02-28T18:00:00;16130.59;;;-142.83;43.20
9129;BME280;4599;50.906;6.786;2023-02-28T18:04:04;16110.16;;;-142.83;43.24
9129;BME280;4599;50.906;6.786;2023-02-28T18:08:05;16142.88;;;-142.83;42.87
9129;BME280;4599;50.906;6.786;2023-02-28T18:12:08;16097.88;;;-142.83;43.41
9129;BME280;4599;50.906;6.786;2023-02-28T18:16:10;16079.47;;;-142.83;43.70
9129;BME280;4599;50.906;6.786;2023-02-28T18:20:11;16112.19;;;-142.83;44.58
9129;BME280;4599;50.906;6.786;2023-02-28T18:24:14;16061.06;;;-142.83;45.22
9129;BME280;4599;50.906;6.786;2023-02-28T18:28:17;16052.91;;;-142.83;46.02
9129;BME280;4599;50.906;6.786;2023-02-28T18:32:19;16063.13;;;-142.83;47.20
9129;BME280;4599;50.906;6.786;2023-02-28T18:36:21;16075.38;;;-142.83;47.26
9129;BME280;4599;50.906;6.786;2023-02-28T18:40:23;16028.34;;;-142.83;48.16
9129;BME280;4599;50.906;6.786;2023-02-28T18:44:26;16022.22;;;-142.83;47.83
9129;BME280;4599;50.906;6.786;2023-02-28T18:48:27;16024.28;;;-142.83;48.62
9129;BME280;4599;50.906;6.786;2023-02-28T18:52:29;16016.09;;;-142.83;48.83
9129;BME280;4599;50.906;6.786;2023-02-28T18:56:30;16022.22;;;-142.83;49.45
9129;BME280;4599;50.906;6.786;2023-02-28T19:00:35;16005.88;;;-142.83;49.29
9129;BME280;4599;50.906;6.786;2023-02-28T19:04:39;16003.81;;;-142.83;49.02
9129;BME280;4599;50.906;6.786;2023-02-28T19:08:41;16001.78;;;-142.83;49.81
9129;BME280;4599;50.906;6.786;2023-02-28T19:12:42;15977.25;;;-142.83;50.62
9129;BME280;4599;50.906;6.786;2023-02-28T19:16:45;15995.66;;;-142.83;50.29
9129;BME280;4599;50.906;6.786;2023-02-28T19:20:47;15932.25;;;-142.83;50.57
9129;BME280;4599;50.906;6.786;2023-02-28T19:24:48;15981.34;;;-142.83;50.35
9129;BME280;4599;50.906;6.786;2023-02-28T19:28:52;15967.03;;;-142.83;50.84
9129;BME280;4599;50.906;6.786;2023-02-28T19:32:55;16005.88;;;-142.83;50.73
9129;BME280;4599;50.906;6.786;2023-02-28T19:36:57;15989.50;;;-142.83;51.83
9129;BME280;4599;50.906;6.786;2023-02-28T19:40:59;15952.72;;;-142.83;52.23
9129;BME280;4599;50.906;6.786;2023-02-28T19:45:01;15958.84;;;-142.83;52.44
9129;BME280;4599;50.906;6.786;2023-02-28T19:49:04;15969.06;;;-142.83;52.78
9129;BME280;4599;50.906;6.786;2023-02-28T19:53:05;15956.78;;;-142.83;52.89
9129;BME280;4599;50.906;6.786;2023-02-28T19:57:07;15920.00;;;-142.83;53.44
9129;BME280;4599;50.906;6.786;2023-02-28T20:01:10;15940.44;;;-142.83;53.28
9129;BME280;4599;50.906;6.786;2023-02-28T20:05:13;15950.66;;;-142.83;53.83
9129;BME280;4599;50.906;6.786;2023-02-28T20:09:15;15920.00;;;-142.83;53.60
9129;BME280;4599;50.906;6.786;2023-02-28T20:13:17;15936.34;;;-142.83;54.09
9129;BME280;4599;50.906;6.786;2023-02-28T20:17:19;15924.09;;;-142.83;54.02
9129;BME280;4599;50.906;6.786;2023-02-28T20:21:21;15928.16;;;-142.83;55.10
9129;BME280;4599;50.906;6.786;2023-02-28T20:25:23;15891.38;;;-142.83;56.08
9129;BME280;4599;50.906;6.786;2023-02-28T20:29:24;15844.34;;;-142.83;55.12
9129;BME280;4599;50.906;6.786;2023-02-28T20:33:28;15907.72;;;-142.83;55.27
9129;BME280;4599;50.906;6.786;2023-02-28T20:37:31;15885.22;;;-142.83;55.46
9129;BME280;4599;50.906;6.786;2023-02-28T20:41:32;15899.53;;;-142.83;55.63
9129;BME280;4599;50.906;6.786;2023-02-28T20:45:34;15881.16;;;-142.83;55.99
9129;BME280;4599;50.906;6.786;2023-02-28T20:49:35;15889.31;;;-142.83;55.96
9129;BME280;4599;50.906;6.786;2023-02-28T20:53:38;15911.81;;;-142.83;55.90
9129;BME280;4599;50.906;6.786;2023-02-28T20:57:40;15864.78;;;-142.83;56.58
9129;BME280;4599;50.906;6.786;2023-02-28T21:01:41;15897.50;;;-142.83;55.73
9129;BME280;4599;50.906;6.786;2023-02-28T21:05:43;15891.38;;;-142.83;55.60
9129;BME280;4599;50.906;6.786;2023-02-28T21:09:45;15885.22;;;-142.83;56.15
9129;BME280;4599;50.906;6.786;2023-02-28T21:13:47;15899.53;;;-142.83;56.74
9129;BME280;4599;50.906;6.786;2023-02-28T21:17:48;15887.28;;;-142.83;57.23
9129;BME280;4599;50.906;6.786;2023-02-28T21:21:50;15862.75;;;-142.83;57.74
9129;BME280;4599;50.906;6.786;2023-02-28T21:25:53;15846.38;;;-142.83;58.02
9129;BME280;4599;50.906;6.786;2023-02-28T21:29:54;15854.56;;;-142.83;58.07
9129;BME280;4599;50.906;6.786;2023-02-28T21:33:57;15852.53;;;-142.83;58.17
9129;BME280;4599;50.906;6.786;2023-02-28T21:37:58;15850.47;;;-142.83;58.40
9129;BME280;4599;50.906;6.786;2023-02-28T21:42:01;15854.56;;;-142.83;58.76
9129;BME280;4599;50.906;6.786;2023-02-28T21:46:04;15897.50;;;-142.83;59.23